Aérodrome :
LOGIN :

S'inscrire | Disclaimer

   EN    FR    IT 

 










Légende :    VFR   VFR Marginal   IFR   IFR Intensif   IFR Très Intensif
Visi : 
Plafond : 
>= 8 km
>= 3000ft
5 à 8 km
1000 à 3000 ft
1500m à 5 km
500 à 1000 ft
800 à 1500m
200 à 500 ft
< 800m
< 200 ft
Symboles :   Orages  Brouillard  Fortes neiges  Fortes précipitations  Vent > 20 kt
SIGMETs :   Divers  Orages  Givrage  Turbulence  Onde Orograph.  Cendres Volcan.






- Altitude de l'aérodrome : 204 ft
- Code IATA : AGF


LFBA - Agen

DERNIER METAR :
  • 242100Z AUTO 30008KT 7000 SCT009 BKN240 07/06 Q1022 TEMPO 0300 FG VV///

METARs EXPIRÉS :
  • 242030Z AUTO 29008KT 5000 BR FEW008 SCT230 06/05 Q1022 TEMPO 0300 FG VV///
  • 242000Z AUTO VRB02KT 4900 BR NSC 05/04 Q1022 TEMPO 0300 FG VV///
  • 241930Z AUTO 00000KT 5000 1100 R29/0900D BR FEW004 SCT230 05/04 Q1021 TEMPO 0300 FG VV///
  • 241900Z AUTO 19001KT 3400 1000 R29/1400U BR NSC 06/05 Q1021 TEMPO 0300 FG VV///
  • 241830Z AUTO 00000KT 6000 NSC 07/06 Q1021 TEMPO 0300 FG VV///

TAF AMD TAF LFBA
Valide du 24 à 20h jusqu'au 25 à 03h UTC


242039Z 2420/2503 VRB02KT 4000 BR NSC
TEMPO 2420/2423 0300 FG VV///
FM250000 23006KT 4000 BR OVC012



MET'MAP, la Météo Aéronautique d'un coup d'oeil ! - Copyright ORBIFLY Décembre 2007 - Disclaimer

ORBIFLY MET'MAP TEAM :

Programmation & Développement : Alexandra Zaïnal
Sur une idée originale de : Baudouin d'Aumeries
Assistance à la programmation : Marc-Olivier Méhu
Soutien technique & logistique : Manuel Goepfert

Contact : metmap@orbifly.com




SOURCES & CREDITS :

   NOAA